Time;durP1;ratioP1;P1;durP2;ratioP2;P2;SDS_P1;SDS_P2;PMS_P1;PMS_P2;Temp;Humidity;BMP_temperature;BMP_pressure;BME280_temperature;BME280_humidity;BME280_pressure;Samples;Min_cycle;Max_cycle;Signal;HPM_P1;HPM_P2
2022/02/05 00:01:47;;;;;;;;;49.75;41.75;;;;;7.96;61.42;101989.53;5093833;27;45282;-75
2022/02/05 00:04:16;;;;;;;;;18.50;15.00;;;;;7.98;61.37;101999.28;5097546;27;45375;-75
2022/02/05 00:06:45;;;;;;;;;29.75;28.25;;;;;7.94;61.71;102000.00;5096357;27;45308;-76
2022/02/05 00:38:58;;;;;;;;;5.75;5.00;;;;;7.77;61.90;102003.66;5096426;27;45469;-75
2022/02/05 00:41:45;;;;;;;;;9.75;7.75;;;;;7.79;61.87;102013.44;5065155;27;47796;-76
2022/02/05 00:44:10;;;;;;;;;6.00;2.50;;;;;7.79;61.83;102002.91;5095563;27;45203;-75
2022/02/05 00:46:39;;;;;;;;;6.00;3.00;;;;;7.81;62.08;102008.22;5087545;27;45257;-76
2022/02/05 00:49:04;;;;;;;;;7.75;4.50;;;;;7.81;61.88;102014.38;5094971;27;45514;-76
2022/02/05 00:51:45;;;;;;;;;9.50;5.00;;;;;7.81;62.00;102013.47;5094965;27;56906;-76
2022/02/05 00:54:14;;;;;;;;;5.25;2.00;;;;;7.72;62.00;101992.94;5094473;27;45308;-75
2022/02/05 00:59:24;;;;;;;;;8.25;3.00;;;;;7.78;61.79;102006.38;5088760;27;45306;-75
2022/02/05 01:01:49;;;;;;;;;6.25;4.50;;;;;7.69;61.74;101990.22;5096146;27;59870;-75
2022/02/05 01:04:18;;;;;;;;;5.25;5.00;;;;;7.69;61.99;101992.84;5096644;27;45254;-76
2022/02/05 01:06:44;;;;;;;;;9.75;3.00;;;;;7.77;62.29;102024.69;5082641;27;45255;-76
2022/02/05 01:09:14;;;;;;;;;7.75;5.00;;;;;7.68;62.06;102005.94;5096133;27;45269;-76
2022/02/05 01:11:39;;;;;;;;;7.00;5.00;;;;;7.65;62.21;102006.69;5090866;27;46540;-76
2022/02/05 01:14:08;;;;;;;;;6.00;3.00;;;;;7.74;62.01;102027.22;5094729;27;59861;-75
2022/02/05 01:19:33;;;;;;;;;11.00;3.00;;;;;7.55;62.39;102004.50;5090977;27;45459;-75
2022/02/05 01:22:01;;;;;;;;;11.75;6.75;;;;;7.59;62.31;102016.94;5090546;27;46924;-76
2022/02/05 01:24:39;;;;;;;;;6.50;5.00;;;;;7.65;62.34;102027.72;5094507;27;45511;-76
2022/02/05 01:27:14;;;;;;;;;3.25;2.00;;;;;7.63;62.34;102034.66;5089462;27;45452;-76
2022/02/05 01:32:22;;;;;;;;;5.50;2.50;;;;;7.44;62.18;102009.31;5096554;27;45759;-76
2022/02/05 01:35:08;;;;;;;;;3.50;3.00;;;;;7.57;62.19;102047.53;5092259;27;45643;-75
2022/02/05 01:56:51;;;;;;;;;10.75;5.00;;;;;7.41;62.61;102063.47;5090431;27;45561;-77
2022/02/05 01:59:44;;;;;;;;;9.00;2.75;;;;;7.29;62.66;102053.31;5093863;27;45401;-76
2022/02/05 02:05:00;;;;;;;;;5.75;3.00;;;;;7.40;62.80;102066.91;5093327;27;45906;-76
2022/02/05 02:09:38;;;;;;;;;5.00;2.50;;;;;7.41;62.89;102074.00;5098943;27;45329;-76
2022/02/05 02:10:28;;;;;;;;;5.00;2.75;;;;;7.31;62.88;102059.56;5093340;27;45515;-76
2022/02/05 02:16:30;;;;;;;;;2.25;2.00;;;;;7.32;62.86;102075.38;5089148;27;45710;-76
2022/02/05 02:26:06;;;;;;;;;5.75;2.75;;;;;7.24;63.00;102081.09;5085834;27;46228;-76
2022/02/05 02:28:44;;;;;;;;;4.25;2.25;;;;;7.25;63.08;102093.44;5097340;27;45698;-76
2022/02/05 02:31:20;;;;;;;;;9.00;2.75;;;;;7.21;63.05;102087.13;5094974;27;45382;-76
2022/02/05 02:33:51;;;;;;;;;5.75;2.50;;;;;7.22;63.31;102094.19;5097759;27;45637;-76
2022/02/05 02:36:40;;;;;;;;;6.75;2.25;;;;;7.21;63.10;102089.75;5094564;27;46006;-76
2022/02/05 02:39:16;;;;;;;;;9.00;2.00;;;;;7.20;63.38;102092.31;5098977;27;45455;-76
2022/02/05 02:41:50;;;;;;;;;5.25;3.00;;;;;7.20;63.29;102087.97;5097782;27;46683;-76
2022/02/05 02:44:15;;;;;;;;;2.00;2.00;;;;;7.15;63.34;102084.25;5098772;27;46154;-76
2022/02/05 02:46:41;;;;;;;;;2.25;1.75;;;;;7.21;63.54;102092.38;5094988;27;45931;-76
2022/02/05 02:49:09;;;;;;;;;6.25;1.00;;;;;7.20;63.15;102106.34;5093909;27;45340;-75
2022/02/05 02:59:58;;;;;;;;;6.25;2.25;;;;;7.10;63.44;102096.25;5097484;27;45543;-75
2022/02/05 03:02:25;;;;;;;;;11.00;2.50;;;;;7.16;63.41;102108.78;5091531;27;45252;-75
2022/02/05 03:04:53;;;;;;;;;4.50;3.00;;;;;7.13;63.38;102106.88;5096529;27;45674;-75
2022/02/05 03:07:34;;;;;;;;;10.50;2.25;;;;;7.07;63.41;102101.34;5074629;27;46455;-75
2022/02/05 03:09:59;;;;;;;;;6.00;2.00;;;;;7.11;63.45;102113.81;5084418;27;45153;-75
2022/02/05 03:12:25;;;;;;;;;2.00;1.75;;;;;7.09;63.27;102118.09;5095411;27;49687;-75
2022/02/05 03:14:51;;;;;;;;;7.25;2.00;;;;;7.07;63.37;102120.63;5095197;27;50106;-75
2022/02/05 03:17:19;;;;;;;;;4.25;2.00;;;;;7.08;63.47;102121.53;5096412;27;46244;-75
2022/02/05 03:19:46;;;;;;;;;2.50;2.50;;;;;6.97;63.38;102113.16;5097628;27;45535;-75
2022/02/05 03:22:19;;;;;;;;;5.00;2.25;;;;;7.04;63.53;102124.88;5098244;27;45558;-75
2022/02/05 03:24:44;;;;;;;;;5.75;3.25;;;;;6.98;63.43;102124.59;5087772;27;45566;-75
2022/02/05 03:27:12;;;;;;;;;5.00;2.00;;;;;7.05;63.68;102126.66;5095359;27;46831;-75
2022/02/05 03:29:39;;;;;;;;;2.50;2.50;;;;;7.02;63.36;102131.75;5092007;27;45541;-74
2022/02/05 03:32:05;;;;;;;;;3.50;2.25;;;;;7.02;63.61;102137.91;5092927;27;45235;-75
2022/02/05 03:34:31;;;;;;;;;2.00;2.00;;;;;7.00;63.62;102136.94;5096515;27;45457;-75
2022/02/05 03:36:58;;;;;;;;;3.75;2.00;;;;;7.02;63.60;102135.28;5112351;27;57146;-75
2022/02/05 03:39:23;;;;;;;;;3.00;2.00;;;;;6.94;63.53;102125.28;5084400;27;45341;-76
2022/02/05 03:41:49;;;;;;;;;5.25;2.00;;;;;6.93;63.77;102121.75;5086744;27;45594;-75
2022/02/05 03:44:14;;;;;;;;;3.00;2.00;;;;;7.08;63.73;102145.19;5087261;27;45513;-75
2022/02/05 03:46:39;;;;;;;;;3.50;3.00;;;;;7.12;63.67;102138.34;5093328;27;47290;-75
2022/02/05 03:49:05;;;;;;;;;2.75;2.50;;;;;7.14;63.42;102136.69;5091298;27;45266;-75
2022/02/05 03:51:30;;;;;;;;;5.25;2.75;;;;;7.12;63.38;102146.22;5097551;27;45397;-75
2022/02/05 03:53:56;;;;;;;;;2.00;2.00;;;;;7.12;63.45;102148.84;5108341;27;45631;-75
2022/02/05 03:56:21;;;;;;;;;4.00;2.00;;;;;7.10;63.65;102159.28;5097525;27;46362;-75
2022/02/05 03:58:46;;;;;;;;;2.50;2.00;;;;;7.00;63.56;102136.94;5096753;27;52139;-75
2022/02/05 04:01:13;;;;;;;;;1.00;1.00;;;;;7.06;63.76;102154.72;5105543;27;45982;-75
2022/02/05 04:03:38;;;;;;;;;7.50;2.00;;;;;7.04;63.54;102149.41;5097550;27;45468;-74
2022/02/05 04:06:04;;;;;;;;;2.50;1.75;;;;;7.04;63.62;102141.53;5096927;27;59893;-75
2022/02/05 04:08:31;;;;;;;;;5.00;2.00;;;;;7.02;63.60;102147.53;5094250;27;45747;-75
2022/02/05 04:11:16;;;;;;;;;3.00;3.00;;;;;7.02;63.82;102145.78;5088840;27;45599;-75
2022/02/05 04:16:25;;;;;;;;;3.00;3.00;;;;;7.04;63.73;102154.66;5092773;27;45701;-75
2022/02/05 04:18:55;;;;;;;;;6.50;1.75;;;;;7.04;63.75;102152.03;5095072;27;47797;-75
2022/02/05 04:21:21;;;;;;;;;5.00;2.00;;;;;6.96;63.66;102132.38;5093571;27;45606;-75
2022/02/05 04:23:48;;;;;;;;;6.00;5.00;;;;;7.03;63.48;102144.06;5094236;27;45423;-75
2022/02/05 04:26:17;;;;;;;;;5.00;4.50;;;;;7.03;63.55;102150.25;5094334;27;45790;-75
2022/02/05 04:28:42;;;;;;;;;4.25;2.75;;;;;7.05;63.54;102155.56;5093514;27;45707;-75
2022/02/05 04:31:08;;;;;;;;;8.00;3.00;;;;;7.04;63.74;102151.13;5105183;27;45350;-75
2022/02/05 04:33:34;;;;;;;;;3.75;2.00;;;;;6.96;63.79;102135.00;5087886;27;45341;-75
2022/02/05 04:35:59;;;;;;;;;5.00;2.75;;;;;7.06;63.82;102150.38;5092864;27;61332;-75
2022/02/05 04:38:26;;;;;;;;;1.00;1.00;;;;;7.05;63.80;102145.94;5096701;27;45365;-75
2022/02/05 04:40:57;;;;;;;;;4.25;2.25;;;;;7.06;63.96;102136.34;5097969;27;45345;-75
2022/02/05 04:53:58;;;;;;;;;3.00;2.00;;;;;6.97;63.81;102170.94;5089435;27;46035;-74
2022/02/05 05:09:37;;;;;;;;;2.50;1.00;;;;;6.78;63.96;102163.03;5091155;27;45307;-75
2022/02/05 05:12:24;;;;;;;;;3.50;1.00;;;;;6.71;64.18;102161.84;5096517;27;45251;-75
2022/02/05 05:20:18;;;;;;;;;1.75;1.25;;;;;6.59;64.42;102158.63;5101860;27;45319;-75
2022/02/05 05:22:43;;;;;;;;;1.00;1.00;;;;;6.65;64.65;102163.25;5102853;27;45215;-75
2022/02/05 05:25:10;;;;;;;;;4.00;4.00;;;;;6.71;64.45;102169.72;5097128;27;45400;-75
2022/02/05 05:27:37;;;;;;;;;6.00;2.00;;;;;6.72;64.59;102181.13;5094969;27;46793;-75
2022/02/05 05:30:07;;;;;;;;;3.75;2.00;;;;;6.75;64.53;102183.88;5094675;27;45340;-76
2022/02/05 05:32:33;;;;;;;;;8.00;2.75;;;;;6.61;64.61;102154.34;5097738;27;45283;-74
2022/02/05 05:34:58;;;;;;;;;3.00;2.00;;;;;6.72;64.51;102166.28;5086110;27;45170;-74
2022/02/05 05:37:24;;;;;;;;;1.75;1.75;;;;;6.78;64.62;102166.56;5099301;27;45464;-75
2022/02/05 05:39:50;;;;;;;;;2.25;1.00;;;;;6.74;64.73;102164.59;5098831;27;60778;-76
2022/02/05 05:42:26;;;;;;;;;1.75;1.75;;;;;6.78;64.81;102161.31;5111828;27;45473;-74
2022/02/05 05:52:20;;;;;;;;;5.00;1.75;;;;;6.82;64.83;102170.25;5099088;27;45453;-75
2022/02/05 05:54:45;;;;;;;;;1.25;1.00;;;;;6.88;64.85;102180.13;5098902;27;45567;-75
2022/02/05 05:57:11;;;;;;;;;2.00;1.00;;;;;6.89;64.84;102187.19;5089022;27;61709;-74
2022/02/05 05:59:38;;;;;;;;;3.25;0.75;;;;;6.89;64.86;102181.91;5075873;27;59320;-75
2022/02/05 06:02:03;;;;;;;;;2.25;1.00;;;;;6.79;64.82;102173.59;5106591;27;45241;-74
2022/02/05 06:04:29;;;;;;;;;1.75;1.00;;;;;6.87;64.68;102186.19;5085406;27;45529;-75
2022/02/05 06:06:54;;;;;;;;;4.25;1.00;;;;;6.86;65.03;102189.63;5196349;22;48485;-74
2022/02/05 06:09:19;;;;;;;;;1.75;1.00;;;;;6.86;65.17;102189.63;5116964;27;45369;-75
2022/02/05 06:11:45;;;;;;;;;1.00;1.00;;;;;6.87;65.01;102200.25;5101810;27;45804;-75
2022/02/05 06:14:12;;;;;;;;;1.00;1.00;;;;;6.90;65.06;102196.84;5117905;27;47266;-75
2022/02/05 06:16:37;;;;;;;;;1.25;1.25;;;;;6.92;64.94;102188.19;5118249;27;46058;-75
2022/02/05 06:19:03;;;;;;;;;5.25;2.00;;;;;6.93;65.00;102197.00;5119909;27;45271;-75
2022/02/05 06:21:28;;;;;;;;;3.25;1.00;;;;;6.93;65.05;102191.75;5119550;27;45294;-75
2022/02/05 06:23:54;;;;;;;;;5.50;2.00;;;;;6.87;65.04;102179.22;5117559;27;55123;-75
2022/02/05 06:26:20;;;;;;;;;2.00;2.00;;;;;6.95;64.90;102190.97;5119940;27;46786;-75
2022/02/05 06:28:45;;;;;;;;;1.50;1.00;;;;;6.96;65.04;102194.50;5112543;27;51746;-75
2022/02/05 06:31:10;;;;;;;;;6.00;2.00;;;;;6.98;64.85;102198.13;5101300;27;53057;-75
2022/02/05 06:33:36;;;;;;;;;3.50;1.00;;;;;6.96;65.07;102195.41;5119213;27;45631;-75
2022/02/05 06:36:01;;;;;;;;;4.00;1.50;;;;;6.97;64.88;102205.06;5117484;27;60449;-75
2022/02/05 06:38:26;;;;;;;;;5.00;1.00;;;;;6.85;65.13;102194.00;5087406;27;54894;-74
2022/02/05 06:40:55;;;;;;;;;4.00;1.00;;;;;6.81;64.98;102198.19;5090641;27;45931;-76
2022/02/05 06:43:20;;;;;;;;;3.25;1.00;;;;;6.80;65.34;102212.16;5072024;27;45679;-75
2022/02/05 06:45:45;;;;;;;;;5.50;2.00;;;;;6.71;65.22;102198.59;5095441;27;57443;-75
2022/02/05 06:48:11;;;;;;;;;3.25;1.25;;;;;6.87;65.33;102225.56;5080331;27;58415;-74
2022/02/05 06:50:37;;;;;;;;;8.25;1.50;;;;;6.85;65.48;102235.09;5099725;27;45543;-75
2022/02/05 06:53:02;;;;;;;;;2.50;1.75;;;;;6.83;65.27;102243.81;5103297;27;45602;-75
2022/02/05 06:55:28;;;;;;;;;5.25;1.50;;;;;6.82;65.39;102251.63;5084180;27;47285;-74
2022/02/05 06:57:54;;;;;;;;;6.25;2.50;;;;;6.80;65.33;102243.66;5119712;27;45711;-74
2022/02/05 07:00:19;;;;;;;;;6.75;3.00;;;;;6.71;65.27;102237.03;5101259;27;45414;-74
2022/02/05 07:02:45;;;;;;;;;7.00;3.00;;;;;6.71;65.34;102243.22;5119513;27;45267;-75
2022/02/05 07:05:10;;;;;;;;;6.00;2.25;;;;;6.79;65.45;102243.56;5101278;27;47105;-74
2022/02/05 07:07:36;;;;;;;;;3.50;3.50;;;;;6.81;65.48;102257.66;5101193;27;45415;-75
2022/02/05 07:10:01;;;;;;;;;5.25;2.00;;;;;6.81;65.33;102250.69;5120111;27;45391;-73
2022/02/05 07:12:27;;;;;;;;;3.25;1.00;;;;;6.89;65.56;102273.81;5119091;27;45403;-73
2022/02/05 07:15:12;;;;;;;;;4.75;3.00;;;;;6.83;65.36;102261.28;5112240;27;46387;-73
2022/02/05 07:23:51;;;;;;;;;4.00;2.00;;;;;7.07;65.37;102264.19;5114066;27;45208;-74
2022/02/05 07:31:17;;;;;;;;;5.00;1.00;;;;;7.00;65.22;102278.75;5115926;27;45384;-75
2022/02/05 07:33:42;;;;;;;;;5.75;1.00;;;;;6.91;65.24;102272.16;5100235;27;45228;-76
2022/02/05 07:36:08;;;;;;;;;3.25;1.00;;;;;6.90;65.44;102265.09;5116127;27;45776;-75
2022/02/05 07:38:33;;;;;;;;;5.50;2.00;;;;;7.00;65.33;102296.25;5080579;27;45374;-75
2022/02/05 07:40:59;;;;;;;;;1.75;1.75;;;;;6.99;65.31;102289.19;5080566;27;46038;-75
2022/02/05 07:43:26;;;;;;;;;5.00;1.00;;;;;6.98;65.52;102287.41;5098622;27;45580;-76
2022/02/05 07:45:51;;;;;;;;;3.00;3.00;;;;;6.84;65.75;102265.72;5100828;27;45454;-76
2022/02/05 07:48:17;;;;;;;;;1.50;1.50;;;;;7.03;65.68;102299.00;5083181;27;45263;-75
2022/02/05 07:50:42;;;;;;;;;5.25;2.00;;;;;7.01;65.33;102292.78;5083342;27;45372;-75
2022/02/05 07:53:08;;;;;;;;;2.00;2.00;;;;;6.97;65.36;102286.47;5117733;27;50334;-75
2022/02/05 07:55:33;;;;;;;;;2.50;1.50;;;;;6.95;65.52;102292.50;5118333;27;62056;-75
2022/02/05 07:57:58;;;;;;;;;4.25;4.25;;;;;6.93;65.43;102291.53;5118445;27;59461;-74
2022/02/05 08:00:24;;;;;;;;;4.75;2.00;;;;;6.91;65.56;102301.94;5099484;27;53038;-74
2022/02/05 08:02:51;;;;;;;;;4.50;3.25;;;;;6.86;65.71;102282.41;5110505;27;54348;-75
2022/02/05 08:05:17;;;;;;;;;7.25;2.00;;;;;6.79;65.71;102275.97;5097951;27;46531;-75
2022/02/05 08:07:43;;;;;;;;;9.25;4.00;;;;;6.86;65.54;102282.41;5106381;27;45461;-74
2022/02/05 08:10:09;;;;;;;;;6.00;4.50;;;;;6.88;65.84;102277.28;5100338;27;45523;-75
2022/02/05 08:12:38;;;;;;;;;9.75;5.00;;;;;6.91;65.99;102288.81;5118000;27;45330;-75
2022/02/05 08:15:04;;;;;;;;;2.25;2.25;;;;;6.92;65.86;102287.06;5100766;27;46225;-74
2022/02/05 08:17:33;;;;;;;;;1.75;1.75;;;;;6.83;66.05;102270.06;5099101;27;45335;-74
2022/02/05 08:19:58;;;;;;;;;5.75;1.75;;;;;6.97;66.30;102286.47;5098136;27;45369;-75
2022/02/05 08:22:23;;;;;;;;;2.00;2.00;;;;;7.04;66.25;102279.81;5112878;27;45517;-74
2022/02/05 08:24:49;;;;;;;;;2.00;1.50;;;;;6.92;66.09;102242.44;5090656;27;55916;-74
2022/02/05 08:27:14;;;;;;;;;4.00;2.00;;;;;7.13;66.10;102274.09;5079540;27;51420;-77
2022/02/05 08:29:48;;;;;;;;;12.00;2.75;;;;;7.15;66.12;102265.47;5081156;27;45746;-75
2022/02/05 08:32:14;;;;;;;;;5.75;2.00;;;;;7.21;66.35;102276.28;5083791;27;45311;-77
2022/02/05 08:34:39;;;;;;;;;2.50;1.50;;;;;7.23;65.93;102277.22;5117762;27;47019;-77
2022/02/05 08:37:05;;;;;;;;;4.75;2.00;;;;;7.26;66.31;102274.75;5081717;27;45288;-78
2022/02/05 08:39:30;;;;;;;;;3.00;3.00;;;;;7.26;66.21;102265.97;5082147;27;45479;-77
2022/02/05 08:41:55;;;;;;;;;6.50;2.50;;;;;7.35;66.12;102277.84;5081791;27;45405;-79
2022/02/05 08:44:21;;;;;;;;;1.00;1.00;;;;;7.28;66.25;102270.47;5090081;27;45717;-76
2022/02/05 08:46:46;;;;;;;;;7.00;2.00;;;;;7.35;66.29;102258.53;5099185;27;47884;-75
2022/02/05 08:49:12;;;;;;;;;5.75;1.00;;;;;7.46;66.38;102286.22;5099265;27;45538;-75
2022/02/05 08:51:37;;;;;;;;;6.50;2.50;;;;;7.50;66.32;102285.50;5110917;27;45660;-74
2022/02/05 08:54:03;;;;;;;;;6.00;2.00;;;;;7.53;66.25;102285.66;5095337;27;45775;-74
2022/02/05 08:56:28;;;;;;;;;3.00;2.00;;;;;7.56;66.20;102285.81;5109028;27;45521;-74
2022/02/05 08:58:55;;;;;;;;;1.75;1.50;;;;;7.59;66.26;102299.09;5111235;27;45731;-74
2022/02/05 09:01:28;;;;;;;;;2.25;2.25;;;;;7.45;67.55;102276.50;5111916;27;45771;-78
2022/02/05 09:04:11;;;;;;;;;2.00;2.00;;;;;7.37;67.47;102277.91;5060813;27;47970;-78
2022/02/05 09:06:40;;;;;;;;;1.75;1.75;;;;;7.42;66.70;102278.13;5084855;27;45507;-75
2022/02/05 09:09:22;;;;;;;;;6.00;2.00;;;;;7.48;66.66;102292.44;5116364;27;45303;-74
2022/02/05 09:11:55;;;;;;;;;7.00;2.00;;;;;7.60;66.90;102307.88;5114992;27;45338;-74
2022/02/05 09:16:52;;;;;;;;;4.50;1.00;;;;;7.56;66.89;102285.81;5097416;27;45703;-74
2022/02/05 09:19:18;;;;;;;;;5.50;3.00;;;;;7.58;67.01;102297.28;5094516;27;45438;-74
2022/02/05 09:21:43;;;;;;;;;3.25;2.00;;;;;7.64;66.79;102285.28;5089552;27;47991;-74
2022/02/05 09:24:08;;;;;;;;;3.00;1.00;;;;;7.67;66.32;102291.56;5115884;27;46120;-74
2022/02/05 09:26:36;;;;;;;;;1.75;1.75;;;;;7.77;66.80;102306.03;5067627;27;45543;-75
2022/02/05 09:29:10;;;;;;;;;6.50;2.25;;;;;7.77;66.60;102282.34;5115023;27;45723;-74
2022/02/05 09:31:36;;;;;;;;;6.00;2.00;;;;;7.82;66.19;102283.47;5075991;27;45610;-74
2022/02/05 09:34:02;;;;;;;;;6.75;2.00;;;;;7.86;66.41;102278.41;5090289;27;45396;-74
2022/02/05 09:36:27;;;;;;;;;5.50;3.00;;;;;7.95;66.43;102293.72;5092520;27;45518;-74
2022/02/05 09:38:54;;;;;;;;;8.50;2.00;;;;;8.00;66.60;102300.09;5114123;27;45273;-74
2022/02/05 09:41:20;;;;;;;;;2.00;1.50;;;;;7.96;66.42;102285.00;5097990;27;45531;-75
2022/02/05 09:43:46;;;;;;;;;4.00;2.00;;;;;8.09;66.41;102297.84;5116806;27;47164;-75
2022/02/05 09:46:12;;;;;;;;;2.75;2.00;;;;;8.14;66.22;102298.97;5096061;27;45319;-74
2022/02/05 09:48:38;;;;;;;;;2.75;2.75;;;;;8.09;66.05;102286.44;5098761;27;45489;-73
2022/02/05 09:51:07;;;;;;;;;3.00;3.00;;;;;8.04;66.24;102272.19;5116735;27;45476;-75
2022/02/05 09:53:33;;;;;;;;;1.75;1.75;;;;;8.24;66.22;102297.63;5091090;27;47419;-74
2022/02/05 09:55:58;;;;;;;;;5.25;3.00;;;;;8.23;66.33;102298.47;5088713;27;45481;-75
2022/02/05 09:58:23;;;;;;;;;5.75;2.75;;;;;8.28;66.15;102296.94;5114213;27;55532;-74
2022/02/05 10:01:00;;;;;;;;;5.50;1.50;;;;;8.36;66.14;102294.66;5115774;27;45199;-73
2022/02/05 10:03:26;;;;;;;;;3.33;1.67;;;;;8.36;65.93;102294.66;5097517;27;46768;-73
2022/02/05 10:06:04;;;;;;;;;2.00;2.00;;;;;8.50;66.16;102319.88;5114834;27;45534;-73
2022/02/05 10:08:30;;;;;;;;;6.00;2.00;;;;;8.51;65.96;102315.50;5068884;27;45244;-74
2022/02/05 10:10:55;;;;;;;;;11.25;2.00;;;;;8.57;66.04;102326.28;5037967;28;51066;-73
2022/02/05 10:13:20;;;;;;;;;6.00;2.00;;;;;8.47;65.94;102281.97;5057948;28;63955;-73
2022/02/05 10:15:52;;;;;;;;;1.25;1.00;;;;;8.68;65.98;102317.09;5068843;28;49158;-73
2022/02/05 10:18:26;;;;;;;;;4.00;2.00;;;;;8.65;65.52;102309.09;5077090;27;45334;-73
2022/02/05 10:20:56;;;;;;;;;6.50;1.50;;;;;8.69;65.67;102307.50;5085323;27;45586;-73
2022/02/05 10:23:21;;;;;;;;;1.75;1.75;;;;;8.75;65.51;102319.19;5071550;28;46466;-74
2022/02/05 10:25:50;;;;;;;;;7.00;2.00;;;;;8.80;65.67;102325.56;5072604;27;45334;-73
2022/02/05 10:28:16;;;;;;;;;3.00;1.00;;;;;8.72;65.17;102316.41;5086333;27;45340;-73
2022/02/05 10:30:45;;;;;;;;;2.00;2.00;;;;;8.79;65.31;102323.75;5076251;28;45409;-73
2022/02/05 10:36:20;;;;;;;;;3.00;2.00;;;;;8.88;65.23;102328.50;5072347;28;45504;-74
2022/02/05 10:43:57;;;;;;;;;6.25;3.00;;;;;8.99;65.06;102345.66;5072758;28;45700;-74
2022/02/05 10:46:22;;;;;;;;;3.00;2.00;;;;;9.03;65.04;102344.94;5077860;27;48930;-74
2022/02/05 10:48:48;;;;;;;;;3.67;1.67;;;;;9.08;65.38;102346.03;5059321;28;45458;-73
2022/02/05 10:51:14;;;;;;;;;7.33;2.00;;;;;9.10;65.14;102346.97;5075860;28;54555;-73
2022/02/05 10:53:46;;;;;;;;;3.00;3.00;;;;;9.19;64.75;102346.47;5078051;27;47519;-73
2022/02/05 10:56:24;;;;;;;;;4.00;2.00;;;;;9.28;65.00;102357.41;5076705;28;45389;-73
2022/02/05 11:07:19;;;;;;;;;6.75;2.00;;;;;9.45;64.36;102345.78;5086328;27;45596;-74
2022/02/05 11:09:46;;;;;;;;;6.67;2.00;;;;;9.51;64.63;102345.13;5117610;27;45365;-73
2022/02/05 11:20:21;;;;;;;;;6.00;2.00;;;;;9.68;64.49;102333.50;5090568;27;45561;-73
2022/02/05 11:22:59;;;;;;;;;6.67;2.00;;;;;9.86;64.11;102350.91;5088466;27;47316;-73
2022/02/05 11:25:30;;;;;;;;;6.00;4.00;;;;;9.78;63.75;102329.47;5117277;27;46210;-73
2022/02/05 11:27:55;;;;;;;;;3.00;3.00;;;;;9.89;63.84;102332.53;5099698;27;45289;-74
2022/02/05 11:30:26;;;;;;;;;5.00;2.00;;;;;9.96;63.15;102337.22;5094938;27;49006;-73
2022/02/05 11:32:52;;;;;;;;;1.67;1.00;;;;;9.98;63.61;102338.16;5119340;27;45551;-73
2022/02/05 11:35:29;;;;;;;;;2.00;1.00;;;;;10.00;63.37;102323.25;5117300;27;52644;-74
2022/02/05 11:37:55;;;;;;;;;1.67;1.67;;;;;10.10;63.39;102335.06;5100356;27;45471;-74
2022/02/05 11:40:46;;;;;;;;;4.00;1.00;;;;;10.17;63.33;102323.88;5099645;27;45644;-73
2022/02/05 11:43:34;;;;;;;;;3.33;1.00;;;;;10.30;63.22;102342.00;5110306;27;45395;-73
2022/02/05 11:46:17;;;;;;;;;6.33;3.00;;;;;10.31;62.46;102316.50;5093201;27;46551;-73
2022/02/05 11:48:55;;;;;;;;;4.33;0.67;;;;;10.42;62.23;102329.25;5117880;27;45430;-74
2022/02/05 11:51:28;;;;;;;;;7.00;2.00;;;;;10.45;62.08;102321.44;5118582;27;45326;-74
2022/02/05 11:54:00;;;;;;;;;4.33;2.00;;;;;10.26;62.13;102276.75;5118520;27;45294;-73
2022/02/05 11:57:08;;;;;;;;;1.33;1.33;;;;;10.50;61.59;102318.97;5113588;27;45835;-73
2022/02/05 11:59:56;;;;;;;;;1.33;1.33;;;;;10.54;61.69;102312.94;5090772;27;45449;-74
2022/02/05 12:02:22;;;;;;;;;7.33;1.67;;;;;10.42;61.12;102287.00;5104360;27;45220;-74
2022/02/05 12:05:13;;;;;;;;;4.33;0.67;;;;;10.60;60.59;102304.31;5116119;27;45414;-74
2022/02/05 12:08:21;;;;;;;;;3.00;1.00;;;;;10.60;59.30;102299.03;5079650;27;46724;-74
2022/02/05 12:10:50;;;;;;;;;6.00;0.00;;;;;10.60;60.11;102293.75;5108229;27;45429;-73
2022/02/05 12:13:23;;;;;;;;;1.00;1.00;;;;;10.67;59.96;102304.59;5083197;27;45343;-74
2022/02/05 12:16:10;;;;;;;;;2.67;1.00;;;;;10.70;60.03;102293.22;5117635;27;45207;-73
2022/02/05 12:18:55;;;;;;;;;0.67;0.67;;;;;10.74;60.14;102290.72;5098975;27;46574;-73
2022/02/05 12:21:27;;;;;;;;;2.33;0.00;;;;;10.78;59.28;102290.84;5106649;27;45666;-73
2022/02/05 12:24:21;;;;;;;;;2.00;1.00;;;;;10.83;59.60;102302.47;5112256;27;45433;-73
2022/02/05 12:26:44;;;;;;;;;2.00;1.00;;;;;10.68;58.82;102261.47;5111137;27;45578;-73
2022/02/05 12:29:22;;;;;;;;;0.00;0.00;;;;;10.81;57.95;102278.63;5109428;27;45492;-73
2022/02/05 12:31:51;;;;;;;;;0.67;0.00;;;;;10.78;57.81;102264.44;5117912;27;45490;-73
2022/02/05 12:34:16;;;;;;;;;4.33;2.00;;;;;10.83;56.82;102268.13;5117096;27;57677;-73
2022/02/05 12:36:50;;;;;;;;;2.00;0.67;;;;;10.83;57.45;102261.09;5113122;27;48287;-74
2022/02/05 12:39:29;;;;;;;;;2.00;1.00;;;;;10.81;56.71;102252.19;5115256;27;45753;-74
2022/02/05 12:42:11;;;;;;;;;3.00;1.00;;;;;10.88;56.31;102272.72;5115692;27;45717;-73
2022/02/05 12:44:38;;;;;;;;;2.67;1.00;;;;;10.89;56.66;102261.28;5109937;27;45459;-74
2022/02/05 12:47:11;;;;;;;;;1.00;1.00;;;;;10.86;56.03;102249.72;5117552;27;45608;-74
2022/02/05 12:49:53;;;;;;;;;2.00;0.00;;;;;10.89;55.52;102257.75;5108185;27;46193;-73
2022/02/05 12:52:30;;;;;;;;;0.00;0.00;;;;;10.97;55.41;102266.81;5113884;27;45467;-74
2022/02/05 12:54:58;;;;;;;;;1.33;0.00;;;;;10.95;55.52;102258.84;5117718;27;45240;-73
2022/02/05 12:57:23;;;;;;;;;1.33;1.00;;;;;11.13;55.54;102274.41;5115042;27;45798;-73
2022/02/05 12:59:49;;;;;;;;;3.00;0.67;;;;;11.25;52.91;102289.75;5111676;27;46653;-73
2022/02/05 13:02:16;;;;;;;;;5.67;1.00;;;;;11.26;54.00;102257.19;5097927;27;45498;-73
2022/02/05 13:04:52;;;;;;;;;0.00;0.00;;;;;11.40;54.29;102265.50;5088300;27;45251;-74
2022/02/05 13:07:21;;;;;;;;;3.33;1.33;;;;;11.44;53.15;102272.69;5114215;27;45326;-73
2022/02/05 13:09:56;;;;;;;;;1.33;1.33;;;;;11.47;54.14;102271.06;5098492;27;47572;-73
2022/02/05 13:12:39;;;;;;;;;1.00;1.00;;;;;11.43;53.46;102276.19;5113176;27;45357;-73
2022/02/05 13:15:22;;;;;;;;;3.00;2.00;;;;;11.39;54.35;102267.25;5113893;27;45336;-73
2022/02/05 13:34:02;;;;;;;;;3.00;1.00;;;;;11.47;54.23;102241.06;5113032;27;45340;-74
2022/02/05 13:36:39;;;;;;;;;3.00;1.33;;;;;11.66;53.66;102258.38;5086184;27;45437;-73
2022/02/05 13:42:00;;;;;;;;;5.00;0.00;;;;;11.70;53.85;102239.09;5116319;27;45717;-74
2022/02/05 13:44:40;;;;;;;;;3.00;1.00;;;;;11.70;53.75;102239.09;5109791;27;45532;-74
2022/02/05 13:47:07;;;;;;;;;3.67;1.00;;;;;11.60;52.26;102227.34;5102054;27;45387;-73
2022/02/05 13:49:33;;;;;;;;;3.00;1.00;;;;;11.53;52.78;102226.28;5119771;27;45546;-74
2022/02/05 13:52:25;;;;;;;;;0.33;0.00;;;;;11.45;52.96;102222.50;5112595;27;47422;-74
2022/02/05 13:54:50;;;;;;;;;0.00;0.00;;;;;11.40;52.39;102232.06;5096038;27;45530;-73
2022/02/05 13:57:16;;;;;;;;;0.33;0.00;;;;;11.35;52.23;102233.66;5116495;27;53686;-73
2022/02/05 13:59:41;;;;;;;;;0.00;0.00;;;;;11.31;52.93;102231.78;5095872;27;51032;-73
2022/02/05 14:02:17;;;;;;;;;1.00;0.00;;;;;11.30;52.44;102234.38;5116385;27;46593;-73
2022/02/05 14:04:43;;;;;;;;;2.00;1.00;;;;;11.27;52.13;102232.53;5118556;27;45365;-73
2022/02/05 14:07:08;;;;;;;;;2.00;1.00;;;;;11.15;52.51;102217.19;5095992;27;45482;-73
2022/02/05 14:09:34;;;;;;;;;0.67;0.00;;;;;11.21;52.12;102225.31;5101259;27;45647;-74
2022/02/05 14:12:19;;;;;;;;;3.67;1.00;;;;;11.19;49.81;102227.00;5095299;27;47272;-73
2022/02/05 14:14:59;;;;;;;;;1.00;0.00;;;;;11.21;49.92;102235.88;5108920;27;45279;-74
2022/02/05 14:17:25;;;;;;;;;0.67;0.00;;;;;11.13;51.01;102223.25;5113259;27;45420;-73
2022/02/05 14:19:50;;;;;;;;;2.33;0.00;;;;;11.14;50.62;102220.69;5101482;27;49419;-74
2022/02/05 14:22:25;;;;;;;;;0.00;0.00;;;;;11.17;50.76;102218.13;5063826;27;48851;-74
2022/02/05 14:25:14;;;;;;;;;2.67;0.00;;;;;11.16;50.05;102221.63;5087029;27;45402;-73
2022/02/05 14:28:06;;;;;;;;;0.00;0.00;;;;;11.17;48.01;102228.69;5100527;27;45235;-73
2022/02/05 14:30:33;;;;;;;;;0.00;0.00;;;;;11.17;50.02;102231.34;5116519;27;46020;-73
2022/02/05 14:33:03;;;;;;;;;0.67;0.67;;;;;11.18;48.62;102232.22;5115588;27;45538;-73
2022/02/05 14:40:45;;;;;;;;;2.00;0.00;;;;;11.24;50.38;102221.88;5124898;27;45426;-73
2022/02/05 14:43:11;;;;;;;;;2.67;1.00;;;;;11.20;50.11;102212.03;5081408;27;45502;-73
2022/02/05 14:45:37;;;;;;;;;1.67;0.00;;;;;11.20;49.11;102204.13;5097473;27;45382;-73